sensor_id;sensor_type;location;lat;lon;timestamp;pressure;altitude;pressure_sealevel;temperature;humidity
23241;BME280;11789;53.482;9.862;2023-07-29T00:00:42;100740.97;;;16.65;100.00
23241;BME280;11789;53.482;9.862;2023-07-29T00:03:08;100741.97;;;16.61;100.00
23241;BME280;11789;53.482;9.862;2023-07-29T00:05:34;100736.88;;;16.56;100.00
23241;BME280;11789;53.482;9.862;2023-07-29T00:08:00;100742.13;;;16.55;100.00
23241;BME280;11789;53.482;9.862;2023-07-29T00:10:25;100737.81;;;16.54;100.00
23241;BME280;11789;53.482;9.862;2023-07-29T00:12:51;100740.38;;;16.55;100.00
23241;BME280;11789;53.482;9.862;2023-07-29T00:15:17;100728.16;;;16.57;100.00
23241;BME280;11789;53.482;9.862;2023-07-29T00:17:42;100728.19;;;16.56;100.00
23241;BME280;11789;53.482;9.862;2023-07-29T00:20:08;100734.25;;;16.56;100.00
23241;BME280;11789;53.482;9.862;2023-07-29T00:22:33;100720.41;;;16.54;100.00
23241;BME280;11789;53.482;9.862;2023-07-29T00:24:59;100716.09;;;16.52;100.00
23241;BME280;11789;53.482;9.862;2023-07-29T00:27:24;100721.31;;;16.52;100.00
23241;BME280;11789;53.482;9.862;2023-07-29T00:29:50;100720.47;;;16.51;100.00
23241;BME280;11789;53.482;9.862;2023-07-29T00:32:15;100714.47;;;16.49;100.00
23241;BME280;11789;53.482;9.862;2023-07-29T00:34:41;100714.47;;;16.49;100.00
23241;BME280;11789;53.482;9.862;2023-07-29T00:37:06;100706.69;;;16.48;100.00
23241;BME280;11789;53.482;9.862;2023-07-29T00:39:35;100707.59;;;16.45;100.00
23241;BME280;11789;53.482;9.862;2023-07-29T00:42:00;100700.72;;;16.43;100.00
23241;BME280;11789;53.482;9.862;2023-07-29T00:44:26;100697.25;;;16.42;100.00
23241;BME280;11789;53.482;9.862;2023-07-29T00:46:52;100699.81;;;16.44;100.00
23241;BME280;11789;53.482;9.862;2023-07-29T00:49:19;100693.78;;;16.42;100.00
23241;BME280;11789;53.482;9.862;2023-07-29T00:51:45;100694.69;;;16.41;100.00
23241;BME280;11789;53.482;9.862;2023-07-29T00:54:10;100686.00;;;16.40;100.00
23241;BME280;11789;53.482;9.862;2023-07-29T00:56:36;100673.75;;;16.42;100.00
23241;BME280;11789;53.482;9.862;2023-07-29T00:59:04;100670.22;;;16.45;100.00
23241;BME280;11789;53.482;9.862;2023-07-29T01:01:30;100665.00;;;16.45;100.00
23241;BME280;11789;53.482;9.862;2023-07-29T01:03:56;100666.66;;;16.47;100.00
23241;BME280;11789;53.482;9.862;2023-07-29T01:06:39;100669.12;;;16.52;100.00
23241;BME280;11789;53.482;9.862;2023-07-29T01:09:35;100671.66;;;16.55;100.00
23241;BME280;11789;53.482;9.862;2023-07-29T01:12:22;100662.09;;;16.55;100.00
23241;BME280;11789;53.482;9.862;2023-07-29T01:17:33;100664.63;;;16.57;100.00
23241;BME280;11789;53.482;9.862;2023-07-29T01:20:06;100664.63;;;16.58;100.00
23241;BME280;11789;53.482;9.862;2023-07-29T01:22:34;100667.22;;;16.58;100.00
23241;BME280;11789;53.482;9.862;2023-07-29T01:25:00;100680.22;;;16.60;100.00
23241;BME280;11789;53.482;9.862;2023-07-29T01:27:26;100682.88;;;16.58;100.00
23241;BME280;11789;53.482;9.862;2023-07-29T01:29:56;100697.69;;;16.58;100.00
23241;BME280;11789;53.482;9.862;2023-07-29T01:35:02;100695.09;;;16.58;100.00
23241;BME280;11789;53.482;9.862;2023-07-29T01:37:31;100683.81;;;16.56;100.00
23241;BME280;11789;53.482;9.862;2023-07-29T01:39:59;100686.41;;;16.57;100.00
23241;BME280;11789;53.482;9.862;2023-07-29T01:42:30;100690.72;;;16.58;100.00
23241;BME280;11789;53.482;9.862;2023-07-29T01:44:56;100688.13;;;16.57;100.00
23241;BME280;11789;53.482;9.862;2023-07-29T01:47:22;100683.81;;;16.56;100.00
23241;BME280;11789;53.482;9.862;2023-07-29T01:49:48;100681.22;;;16.56;100.00
23241;BME280;11789;53.482;9.862;2023-07-29T01:52:13;100676.81;;;16.58;100.00
23241;BME280;11789;53.482;9.862;2023-07-29T01:54:39;100674.22;;;16.58;100.00
23241;BME280;11789;53.482;9.862;2023-07-29T01:57:04;100668.09;;;16.59;100.00
23241;BME280;11789;53.482;9.862;2023-07-29T01:59:29;100663.78;;;16.58;100.00
23241;BME280;11789;53.482;9.862;2023-07-29T02:01:55;100657.72;;;16.56;100.00
23241;BME280;11789;53.482;9.862;2023-07-29T02:04:20;100662.09;;;16.55;100.00
23241;BME280;11789;53.482;9.862;2023-07-29T02:06:46;100664.63;;;16.57;100.00
23241;BME280;11789;53.482;9.862;2023-07-29T02:09:11;100663.78;;;16.56;100.00
23241;BME280;11789;53.482;9.862;2023-07-29T02:11:37;100662.09;;;16.55;100.00
23241;BME280;11789;53.482;9.862;2023-07-29T02:14:02;100656.88;;;16.55;100.00
23241;BME280;11789;53.482;9.862;2023-07-29T02:16:28;100648.19;;;16.55;100.00
23241;BME280;11789;53.482;9.862;2023-07-29T02:18:54;100656.00;;;16.55;100.00
23241;BME280;11789;53.482;9.862;2023-07-29T02:21:20;100650.78;;;16.55;100.00
23241;BME280;11789;53.482;9.862;2023-07-29T02:24:07;100643.75;;;16.57;100.00
23241;BME280;11789;53.482;9.862;2023-07-29T02:26:32;100649.03;;;16.55;100.00
23241;BME280;11789;53.482;9.862;2023-07-29T02:28:58;100648.13;;;16.56;100.00
23241;BME280;11789;53.482;9.862;2023-07-29T02:31:24;100649.03;;;16.55;100.00
23241;BME280;11789;53.482;9.862;2023-07-29T02:33:50;100645.56;;;16.55;100.00
23241;BME280;11789;53.482;9.862;2023-07-29T02:36:16;100644.72;;;16.54;100.00
23241;BME280;11789;53.482;9.862;2023-07-29T02:38:42;100648.19;;;16.55;100.00
23241;BME280;11789;53.482;9.862;2023-07-29T02:41:09;100644.66;;;16.57;100.00
23241;BME280;11789;53.482;9.862;2023-07-29T02:43:38;100648.06;;;16.59;100.00
23241;BME280;11789;53.482;9.862;2023-07-29T02:46:05;100641.97;;;16.59;100.00
23241;BME280;11789;53.482;9.862;2023-07-29T02:48:30;100634.94;;;16.61;100.00
23241;BME280;11789;53.482;9.862;2023-07-29T02:50:56;100628.88;;;16.60;100.00
23241;BME280;11789;53.482;9.862;2023-07-29T02:53:22;100636.66;;;16.62;100.00
23241;BME280;11789;53.482;9.862;2023-07-29T02:55:48;100637.56;;;16.61;100.00
23241;BME280;11789;53.482;9.862;2023-07-29T02:58:13;100629.72;;;16.61;100.00
23241;BME280;11789;53.482;9.862;2023-07-29T03:00:39;100636.75;;;16.59;100.00
23241;BME280;11789;53.482;9.862;2023-07-29T03:03:07;100637.66;;;16.58;100.00
23241;BME280;11789;53.482;9.862;2023-07-29T03:05:33;100636.00;;;16.55;100.00
23241;BME280;11789;53.482;9.862;2023-07-29T03:07:59;100643.03;;;16.53;100.00
23241;BME280;11789;53.482;9.862;2023-07-29T03:10:24;100633.44;;;16.54;100.00
23241;BME280;11789;53.482;9.862;2023-07-29T03:12:50;100637.06;;;16.48;100.00
23241;BME280;11789;53.482;9.862;2023-07-29T03:15:16;100636.22;;;16.48;100.00
23241;BME280;11789;53.482;9.862;2023-07-29T03:17:41;100632.72;;;16.47;100.00
23241;BME280;11789;53.482;9.862;2023-07-29T03:20:07;100638.84;;;16.46;100.00
23241;BME280;11789;53.482;9.862;2023-07-29T03:22:33;100649.28;;;16.46;100.00
23241;BME280;11789;53.482;9.862;2023-07-29T03:24:58;100651.16;;;16.43;100.00
23241;BME280;11789;53.482;9.862;2023-07-29T03:27:23;100645.97;;;16.41;100.00
23241;BME280;11789;53.482;9.862;2023-07-29T03:29:49;100646.00;;;16.40;100.00
23241;BME280;11789;53.482;9.862;2023-07-29T03:32:14;100646.06;;;16.38;100.00
23241;BME280;11789;53.482;9.862;2023-07-29T03:34:40;100643.44;;;16.38;100.00
23241;BME280;11789;53.482;9.862;2023-07-29T03:37:05;100643.59;;;16.33;100.00
23241;BME280;11789;53.482;9.862;2023-07-29T03:39:31;100636.66;;;16.32;100.00
23241;BME280;11789;53.482;9.862;2023-07-29T03:41:57;100640.13;;;16.33;100.00
23241;BME280;11789;53.482;9.862;2023-07-29T03:44:22;100637.47;;;16.34;100.00
23241;BME280;11789;53.482;9.862;2023-07-29T03:46:48;100639.16;;;16.35;100.00
23241;BME280;11789;53.482;9.862;2023-07-29T03:49:13;100645.16;;;16.39;100.00
23241;BME280;11789;53.482;9.862;2023-07-29T03:51:39;100640.78;;;16.40;100.00
23241;BME280;11789;53.482;9.862;2023-07-29T03:54:04;100646.87;;;16.40;100.00
23241;BME280;11789;53.482;9.862;2023-07-29T03:56:29;100632.91;;;16.41;100.00
23241;BME280;11789;53.482;9.862;2023-07-29T03:59:02;100631.97;;;16.44;100.00
23241;BME280;11789;53.482;9.862;2023-07-29T04:01:29;100625.81;;;16.46;100.00
23241;BME280;11789;53.482;9.862;2023-07-29T04:03:54;100638.84;;;16.48;100.00
23241;BME280;11789;53.482;9.862;2023-07-29T04:06:20;100637.03;;;16.50;100.00
23241;BME280;11789;53.482;9.862;2023-07-29T04:08:45;100638.72;;;16.51;100.00
23241;BME280;11789;53.482;9.862;2023-07-29T04:11:11;100631.72;;;16.53;100.00
23241;BME280;11789;53.482;9.862;2023-07-29T04:13:37;100641.19;;;16.55;100.00
23241;BME280;11789;53.482;9.862;2023-07-29T04:16:04;100629.84;;;16.58;100.00
23241;BME280;11789;53.482;9.862;2023-07-29T04:18:29;100627.19;;;16.59;100.00
23241;BME280;11789;53.482;9.862;2023-07-29T04:20:55;100628.81;;;16.62;100.00
23241;BME280;11789;53.482;9.862;2023-07-29T04:23:20;100625.28;;;16.65;100.00
23241;BME280;11789;53.482;9.862;2023-07-29T04:25:45;100636.56;;;16.65;100.00
23241;BME280;11789;53.482;9.862;2023-07-29T04:28:11;100637.37;;;16.67;100.00
23241;BME280;11789;53.482;9.862;2023-07-29T04:30:36;100627.75;;;16.69;100.00
23241;BME280;11789;53.482;9.862;2023-07-29T04:33:02;100636.50;;;16.68;100.00
23241;BME280;11789;53.482;9.862;2023-07-29T04:35:28;100638.19;;;16.69;100.00
23241;BME280;11789;53.482;9.862;2023-07-29T04:37:53;100628.59;;;16.70;100.00
23241;BME280;11789;53.482;9.862;2023-07-29T04:40:19;100634.69;;;16.70;100.00
23241;BME280;11789;53.482;9.862;2023-07-29T04:42:44;100637.28;;;16.72;100.00
23241;BME280;11789;53.482;9.862;2023-07-29T04:45:10;100627.69;;;16.72;100.00
23241;BME280;11789;53.482;9.862;2023-07-29T04:47:35;100627.69;;;16.72;100.00
23241;BME280;11789;53.482;9.862;2023-07-29T04:50:01;100625.97;;;16.73;100.00
23241;BME280;11789;53.482;9.862;2023-07-29T04:52:26;100631.19;;;16.73;100.00
23241;BME280;11789;53.482;9.862;2023-07-29T04:54:52;100628.50;;;16.74;100.00
23241;BME280;11789;53.482;9.862;2023-07-29T04:57:17;100619.78;;;16.75;100.00
23241;BME280;11789;53.482;9.862;2023-07-29T04:59:43;100617.94;;;16.77;100.00
23241;BME280;11789;53.482;9.862;2023-07-29T05:02:08;100613.50;;;16.81;100.00
23241;BME280;11789;53.482;9.862;2023-07-29T05:04:33;100616.94;;;16.83;100.00
23241;BME280;11789;53.482;9.862;2023-07-29T05:06:59;100609.13;;;16.83;100.00
23241;BME280;11789;53.482;9.862;2023-07-29T05:09:24;100609.84;;;16.86;100.00
23241;BME280;11789;53.482;9.862;2023-07-29T05:11:51;100616.69;;;16.91;100.00
23241;BME280;11789;53.482;9.862;2023-07-29T05:14:17;100617.41;;;16.96;100.00
23241;BME280;11789;53.482;9.862;2023-07-29T05:16:43;100611.97;;;17.02;100.00
23241;BME280;11789;53.482;9.862;2023-07-29T05:19:09;100619.63;;;17.08;100.00
23241;BME280;11789;53.482;9.862;2023-07-29T05:21:35;100612.69;;;17.07;100.00
23241;BME280;11789;53.482;9.862;2023-07-29T05:24:00;100613.41;;;17.12;100.00
23241;BME280;11789;53.482;9.862;2023-07-29T05:26:26;100624.56;;;17.17;100.00
23241;BME280;11789;53.482;9.862;2023-07-29T05:28:52;100620.94;;;17.21;100.00
23241;BME280;11789;53.482;9.862;2023-07-29T05:31:18;100619.09;;;17.25;100.00
23241;BME280;11789;53.482;9.862;2023-07-29T05:33:43;100620.81;;;17.26;100.00
23241;BME280;11789;53.482;9.862;2023-07-29T05:36:09;100620.75;;;17.27;100.00
23241;BME280;11789;53.482;9.862;2023-07-29T05:38:34;100632.91;;;17.28;100.00
23241;BME280;11789;53.482;9.862;2023-07-29T05:40:59;100628.59;;;17.27;100.00
23241;BME280;11789;53.482;9.862;2023-07-29T05:43:26;100626.94;;;17.25;100.00
23241;BME280;11789;53.482;9.862;2023-07-29T05:45:56;100632.19;;;17.23;100.00
23241;BME280;11789;53.482;9.862;2023-07-29T05:48:22;100629.78;;;17.17;100.00
23241;BME280;11789;53.482;9.862;2023-07-29T05:50:47;100628.09;;;17.16;100.00
23241;BME280;11789;53.482;9.862;2023-07-29T05:53:19;100622.09;;;17.12;100.00
23241;BME280;11789;53.482;9.862;2023-07-29T05:55:44;100625.66;;;17.10;100.00
23241;BME280;11789;53.482;9.862;2023-07-29T05:58:10;100616.16;;;17.07;100.00
23241;BME280;11789;53.482;9.862;2023-07-29T06:00:35;100610.19;;;17.04;100.00
23241;BME280;11789;53.482;9.862;2023-07-29T06:03:02;100618.06;;;17.02;100.00
23241;BME280;11789;53.482;9.862;2023-07-29T06:05:28;100610.94;;;17.07;100.00
23241;BME280;11789;53.482;9.862;2023-07-29T06:07:53;100599.56;;;17.10;100.00
23241;BME280;11789;53.482;9.862;2023-07-29T06:10:19;100603.66;;;17.17;100.00
23241;BME280;11789;53.482;9.862;2023-07-29T06:12:45;100615.63;;;17.24;100.00
23241;BME280;11789;53.482;9.862;2023-07-29T06:15:11;100605.78;;;17.32;100.00
23241;BME280;11789;53.482;9.862;2023-07-29T06:17:37;100601.38;;;17.34;100.00
23241;BME280;11789;53.482;9.862;2023-07-29T06:20:03;100592.63;;;17.35;100.00
23241;BME280;11789;53.482;9.862;2023-07-29T06:22:29;100599.50;;;17.38;100.00
23241;BME280;11789;53.482;9.862;2023-07-29T06:24:54;100594.19;;;17.41;100.00
23241;BME280;11789;53.482;9.862;2023-07-29T06:27:20;100600.94;;;17.47;100.00
23241;BME280;11789;53.482;9.862;2023-07-29T06:29:45;100595.63;;;17.50;100.00
23241;BME280;11789;53.482;9.862;2023-07-29T06:32:11;100595.63;;;17.50;100.00
23241;BME280;11789;53.482;9.862;2023-07-29T06:34:36;100584.28;;;17.51;100.00
23241;BME280;11789;53.482;9.862;2023-07-29T06:37:01;100582.50;;;17.51;100.00
23241;BME280;11789;53.482;9.862;2023-07-29T06:39:27;100583.28;;;17.53;100.00
23241;BME280;11789;53.482;9.862;2023-07-29T06:41:52;100592.87;;;17.54;100.00
23241;BME280;11789;53.482;9.862;2023-07-29T06:44:18;100598.88;;;17.56;100.00
23241;BME280;11789;53.482;9.862;2023-07-29T06:46:43;100586.59;;;17.58;100.00
23241;BME280;11789;53.482;9.862;2023-07-29T06:49:09;100593.44;;;17.62;100.00
23241;BME280;11789;53.482;9.862;2023-07-29T06:51:34;100597.72;;;17.65;100.00
23241;BME280;11789;53.482;9.862;2023-07-29T06:54:03;100597.72;;;17.65;100.00
23241;BME280;11789;53.482;9.862;2023-07-29T06:56:29;100596.13;;;17.61;100.00
23241;BME280;11789;53.482;9.862;2023-07-29T06:58:54;100596.22;;;17.58;100.00
23241;BME280;11789;53.482;9.862;2023-07-29T07:01:20;100598.03;;;17.56;100.00
23241;BME280;11789;53.482;9.862;2023-07-29T07:03:45;100601.50;;;17.56;100.00
23241;BME280;11789;53.482;9.862;2023-07-29T07:06:11;100604.22;;;17.53;100.00
23241;BME280;11789;53.482;9.862;2023-07-29T07:08:36;100599.03;;;17.52;100.00
23241;BME280;11789;53.482;9.862;2023-07-29T07:11:01;100599.87;;;17.52;100.00
23241;BME280;11789;53.482;9.862;2023-07-29T07:13:27;100598.97;;;17.53;100.00
23241;BME280;11789;53.482;9.862;2023-07-29T07:15:56;100607.69;;;17.54;100.00
23241;BME280;11789;53.482;9.862;2023-07-29T07:18:22;100597.19;;;17.55;100.00
23241;BME280;11789;53.482;9.862;2023-07-29T07:20:49;100609.41;;;17.55;100.00
23241;BME280;11789;53.482;9.862;2023-07-29T07:23:15;100618.09;;;17.55;100.00
23241;BME280;11789;53.482;9.862;2023-07-29T07:25:41;100611.97;;;17.56;100.00
23241;BME280;11789;53.482;9.862;2023-07-29T07:28:08;100608.50;;;17.56;100.00
23241;BME280;11789;53.482;9.862;2023-07-29T07:30:33;100604.91;;;17.58;100.00
23241;BME280;11789;53.482;9.862;2023-07-29T07:32:59;100608.28;;;17.62;100.00
23241;BME280;11789;53.482;9.862;2023-07-29T07:35:24;100603.88;;;17.64;100.00
23241;BME280;11789;53.482;9.862;2023-07-29T07:37:50;100618.53;;;17.68;100.00
23241;BME280;11789;53.482;9.862;2023-07-29T07:40:15;100601.94;;;17.69;100.00
23241;BME280;11789;53.482;9.862;2023-07-29T07:42:41;100600.19;;;17.70;100.00
23241;BME280;11789;53.482;9.862;2023-07-29T07:45:06;100602.81;;;17.70;100.00
23241;BME280;11789;53.482;9.862;2023-07-29T07:47:32;100603.75;;;17.67;100.00
23241;BME280;11789;53.482;9.862;2023-07-29T07:49:57;100602.09;;;17.64;100.00
23241;BME280;11789;53.482;9.862;2023-07-29T07:52:23;100607.44;;;17.61;100.00
23241;BME280;11789;53.482;9.862;2023-07-29T07:54:54;100608.41;;;17.59;100.00
23241;BME280;11789;53.482;9.862;2023-07-29T07:57:21;100608.41;;;17.59;100.00
23241;BME280;11789;53.482;9.862;2023-07-29T07:59:47;100604.06;;;17.58;100.00
23241;BME280;11789;53.482;9.862;2023-07-29T08:02:12;100602.25;;;17.60;100.00
23241;BME280;11789;53.482;9.862;2023-07-29T08:04:38;100607.38;;;17.63;100.00
23241;BME280;11789;53.482;9.862;2023-07-29T08:07:04;100600.22;;;17.68;100.00
23241;BME280;11789;53.482;9.862;2023-07-29T08:09:29;100601.81;;;17.72;100.00
23241;BME280;11789;53.482;9.862;2023-07-29T08:11:58;100600.84;;;17.76;100.00
23241;BME280;11789;53.482;9.862;2023-07-29T08:14:23;100604.25;;;17.78;100.00
23241;BME280;11789;53.482;9.862;2023-07-29T08:16:49;100599.72;;;17.83;100.00
23241;BME280;11789;53.482;9.862;2023-07-29T08:19:14;100601.31;;;17.87;100.00
23241;BME280;11789;53.482;9.862;2023-07-29T08:21:39;100593.25;;;17.94;100.00
23241;BME280;11789;53.482;9.862;2023-07-29T08:24:05;100600.00;;;18.01;100.00
23241;BME280;11789;53.482;9.862;2023-07-29T08:26:32;100588.63;;;18.02;100.00
23241;BME280;11789;53.482;9.862;2023-07-29T08:28:58;100597.22;;;18.05;100.00
23241;BME280;11789;53.482;9.862;2023-07-29T08:31:23;100603.25;;;18.07;100.00
23241;BME280;11789;53.482;9.862;2023-07-29T08:33:49;100608.47;;;18.07;100.00
23241;BME280;11789;53.482;9.862;2023-07-29T08:36:14;100609.31;;;18.08;100.00
23241;BME280;11789;53.482;9.862;2023-07-29T08:38:39;100612.84;;;18.07;100.00
23241;BME280;11789;53.482;9.862;2023-07-29T08:41:39;100616.37;;;18.06;100.00
23241;BME280;11789;53.482;9.862;2023-07-29T08:44:23;100616.47;;;18.03;100.00
23241;BME280;11789;53.482;9.862;2023-07-29T08:46:50;100618.16;;;18.05;100.00
23241;BME280;11789;53.482;9.862;2023-07-29T08:49:18;100618.09;;;18.07;100.00
23241;BME280;11789;53.482;9.862;2023-07-29T08:51:47;100618.00;;;18.10;100.00
23241;BME280;11789;53.482;9.862;2023-07-29T08:54:16;100617.06;;;18.11;100.00
23241;BME280;11789;53.482;9.862;2023-07-29T08:56:42;100617.88;;;18.13;100.00
23241;BME280;11789;53.482;9.862;2023-07-29T08:59:10;100621.31;;;18.13;100.00
23241;BME280;11789;53.482;9.862;2023-07-29T09:01:38;100616.84;;;18.17;100.00
23241;BME280;11789;53.482;9.862;2023-07-29T09:04:03;100608.66;;;18.26;100.00
23241;BME280;11789;53.482;9.862;2023-07-29T09:06:30;100611.75;;;18.37;100.00
23241;BME280;11789;53.482;9.862;2023-07-29T09:08:56;100604.50;;;18.44;100.00
23241;BME280;11789;53.482;9.862;2023-07-29T09:11:22;100606.16;;;18.47;100.00
23241;BME280;11789;53.482;9.862;2023-07-29T09:13:47;100601.69;;;18.50;100.00
23241;BME280;11789;53.482;9.862;2023-07-29T09:16:13;100601.53;;;18.53;100.00
23241;BME280;11789;53.482;9.862;2023-07-29T09:18:39;100598.16;;;18.51;100.00
23241;BME280;11789;53.482;9.862;2023-07-29T09:21:05;100599.78;;;18.54;100.00
23241;BME280;11789;53.482;9.862;2023-07-29T09:23:42;100594.50;;;18.55;100.00
23241;BME280;11789;53.482;9.862;2023-07-29T09:26:09;100593.44;;;18.59;100.00
23241;BME280;11789;53.482;9.862;2023-07-29T09:28:36;100593.34;;;18.62;100.00
23241;BME280;11789;53.482;9.862;2023-07-29T09:31:02;100581.09;;;18.63;100.00
23241;BME280;11789;53.482;9.862;2023-07-29T09:33:35;100582.81;;;18.64;100.00
23241;BME280;11789;53.482;9.862;2023-07-29T09:36:09;100584.56;;;18.63;100.00
23241;BME280;11789;53.482;9.862;2023-07-29T09:38:35;100576.56;;;18.68;100.00
23241;BME280;11789;53.482;9.862;2023-07-29T09:41:01;100582.47;;;18.73;100.00
23241;BME280;11789;53.482;9.862;2023-07-29T09:43:32;100574.38;;;18.79;100.00
23241;BME280;11789;53.482;9.862;2023-07-29T09:46:02;100573.28;;;18.85;100.00
23241;BME280;11789;53.482;9.862;2023-07-29T09:48:32;100573.00;;;18.92;100.00
23241;BME280;11789;53.482;9.862;2023-07-29T09:50:57;100557.88;;;18.99;100.00
23241;BME280;11789;53.482;9.862;2023-07-29T09:53:24;100565.53;;;19.04;100.00
23241;BME280;11789;53.482;9.862;2023-07-29T09:55:50;100566.22;;;19.09;100.00
23241;BME280;11789;53.482;9.862;2023-07-29T09:58:19;100566.88;;;19.14;100.00
23241;BME280;11789;53.482;9.862;2023-07-29T10:00:51;100570.16;;;19.19;100.00
23241;BME280;11789;53.482;9.862;2023-07-29T10:03:18;100572.66;;;19.22;100.00
23241;BME280;11789;53.482;9.862;2023-07-29T10:05:46;100579.53;;;19.25;100.00
23241;BME280;11789;53.482;9.862;2023-07-29T10:08:12;100578.56;;;19.27;100.00
23241;BME280;11789;53.482;9.862;2023-07-29T10:10:40;100574.97;;;19.30;100.00
23241;BME280;11789;53.482;9.862;2023-07-29T10:13:06;100569.69;;;19.31;100.00
23241;BME280;11789;53.482;9.862;2023-07-29T10:15:33;100573.84;;;19.35;100.00
23241;BME280;11789;53.482;9.862;2023-07-29T10:17:59;100578.06;;;19.39;100.00
23241;BME280;11789;53.482;9.862;2023-07-29T10:20:24;100576.28;;;19.40;100.00
23241;BME280;11789;53.482;9.862;2023-07-29T10:22:51;100581.72;;;19.35;100.00
23241;BME280;11789;53.482;9.862;2023-07-29T10:25:22;100574.91;;;19.31;100.00
23241;BME280;11789;53.482;9.862;2023-07-29T10:28:21;100580.19;;;19.30;100.00
23241;BME280;11789;53.482;9.862;2023-07-29T10:30:51;100578.56;;;19.27;100.00
23241;BME280;11789;53.482;9.862;2023-07-29T10:33:17;100583.09;;;19.24;100.00
23241;BME280;11789;53.482;9.862;2023-07-29T10:35:42;100575.28;;;19.22;100.00
23241;BME280;11789;53.482;9.862;2023-07-29T10:38:09;100580.66;;;19.19;100.00
23241;BME280;11789;53.482;9.862;2023-07-29T10:40:52;100570.16;;;19.19;100.00
23241;BME280;11789;53.482;9.862;2023-07-29T10:43:32;100568.47;;;19.18;100.00
23241;BME280;11789;53.482;9.862;2023-07-29T10:46:15;100569.25;;;19.20;100.00
23241;BME280;11789;53.482;9.862;2023-07-29T10:48:44;100573.59;;;19.21;100.00
23241;BME280;11789;53.482;9.862;2023-07-29T10:53:55;100568.34;;;19.21;100.00
23241;BME280;11789;53.482;9.862;2023-07-29T10:56:26;100562.97;;;19.24;100.00
23241;BME280;11789;53.482;9.862;2023-07-29T10:58:52;100563.69;;;19.28;100.00
23241;BME280;11789;53.482;9.862;2023-07-29T11:01:30;100564.28;;;19.34;100.00
23241;BME280;11789;53.482;9.862;2023-07-29T11:15:04;100568.47;;;19.18;100.00
23241;BME280;11789;53.482;9.862;2023-07-29T11:17:33;100564.19;;;19.15;100.00
23241;BME280;11789;53.482;9.862;2023-07-29T11:20:01;100566.94;;;19.12;100.00
23241;BME280;11789;53.482;9.862;2023-07-29T11:22:28;100571.28;;;19.13;100.00
23241;BME280;11789;53.482;9.862;2023-07-29T11:24:53;100568.66;;;19.13;100.00
23241;BME280;11789;53.482;9.862;2023-07-29T11:27:19;100560.50;;;19.21;100.00
23241;BME280;11789;53.482;9.862;2023-07-29T11:29:45;100564.62;;;19.27;100.00
23241;BME280;11789;53.482;9.862;2023-07-29T11:32:10;100563.50;;;19.32;100.00
23241;BME280;11789;53.482;9.862;2023-07-29T11:34:35;100559.78;;;19.38;100.00
23241;BME280;11789;53.482;9.862;2023-07-29T11:37:01;100556.03;;;19.43;100.00
23241;BME280;11789;53.482;9.862;2023-07-29T11:39:27;100550.34;;;19.54;100.00
23241;BME280;11789;53.482;9.862;2023-07-29T11:41:52;100552.44;;;19.66;100.00
23241;BME280;11789;53.482;9.862;2023-07-29T11:44:18;100555.28;;;19.82;100.00
23241;BME280;11789;53.482;9.862;2023-07-29T11:46:44;100549.69;;;19.90;100.00
23241;BME280;11789;53.482;9.862;2023-07-29T11:49:10;100560.75;;;19.96;100.00
23241;BME280;11789;53.482;9.862;2023-07-29T11:51:38;100550.31;;;19.95;100.00
23241;BME280;11789;53.482;9.862;2023-07-29T11:54:08;100555.37;;;20.00;100.00
23241;BME280;11789;53.482;9.862;2023-07-29T11:56:34;100561.16;;;20.08;100.00
23241;BME280;11789;53.482;9.862;2023-07-29T11:59:01;100555.41;;;20.18;100.00
23241;BME280;11789;53.482;9.862;2023-07-29T12:01:28;100555.19;;;20.23;100.00
23241;BME280;11789;53.482;9.862;2023-07-29T12:03:55;100559.59;;;20.23;100.00
23241;BME280;11789;53.482;9.862;2023-07-29T12:06:22;100556.59;;;20.30;100.00
23241;BME280;11789;53.482;9.862;2023-07-29T12:08:49;100557.47;;;20.31;100.00
23241;BME280;11789;53.482;9.862;2023-07-29T12:11:14;100560.00;;;20.32;100.00
23241;BME280;11789;53.482;9.862;2023-07-29T12:13:41;100552.84;;;20.36;100.00
23241;BME280;11789;53.482;9.862;2023-07-29T12:16:07;100560.72;;;20.36;100.00
23241;BME280;11789;53.482;9.862;2023-07-29T12:18:33;100554.50;;;20.38;100.00
23241;BME280;11789;53.482;9.862;2023-07-29T12:20:59;100556.19;;;20.39;100.00
23241;BME280;11789;53.482;9.862;2023-07-29T12:23:26;100560.62;;;20.37;100.00
23241;BME280;11789;53.482;9.862;2023-07-29T12:25:56;100563.44;;;20.34;100.00
23241;BME280;11789;53.482;9.862;2023-07-29T12:28:22;100561.84;;;20.30;100.00
23241;BME280;11789;53.482;9.862;2023-07-29T12:30:48;100563.84;;;20.25;100.00
23241;BME280;11789;53.482;9.862;2023-07-29T12:33:32;100569.37;;;20.19;100.00
23241;BME280;11789;53.482;9.862;2023-07-29T12:35:58;100572.56;;;20.26;100.00
23241;BME280;11789;53.482;9.862;2023-07-29T12:38:27;100565.13;;;20.35;99.94
23241;BME280;11789;53.482;9.862;2023-07-29T12:40:53;100560.44;;;20.42;100.00
23241;BME280;11789;53.482;9.862;2023-07-29T12:43:19;100556.81;;;20.44;99.43
23241;BME280;11789;53.482;9.862;2023-07-29T12:45:44;100556.44;;;20.54;99.43
23241;BME280;11789;53.482;9.862;2023-07-29T12:48:10;100556.16;;;20.60;99.02
23241;BME280;11789;53.482;9.862;2023-07-29T12:50:36;100563.00;;;20.62;97.44
23241;BME280;11789;53.482;9.862;2023-07-29T12:53:02;100556.78;;;20.65;99.33
23241;BME280;11789;53.482;9.862;2023-07-29T12:55:27;100559.41;;;20.65;99.53
23241;BME280;11789;53.482;9.862;2023-07-29T12:57:53;100556.91;;;20.62;98.97